sensor_id;sensor_type;location;lat;lon;timestamp;P1;durP1;ratioP1;P2;durP2;ratioP2
23187;SDS011;11762;59.878;17.686;2023-02-15T00:01:24;21.40;;;8.90;;
23187;SDS011;11762;59.878;17.686;2023-02-15T00:03:52;25.30;;;9.30;;
23187;SDS011;11762;59.878;17.686;2023-02-15T00:06:19;19.50;;;8.73;;
23187;SDS011;11762;59.878;17.686;2023-02-15T00:08:46;20.03;;;8.63;;
23187;SDS011;11762;59.878;17.686;2023-02-15T00:11:14;16.47;;;8.97;;
23187;SDS011;11762;59.878;17.686;2023-02-15T00:14:03;19.77;;;7.70;;
23187;SDS011;11762;59.878;17.686;2023-02-15T00:16:30;19.50;;;8.63;;
23187;SDS011;11762;59.878;17.686;2023-02-15T00:18:59;15.67;;;7.63;;
23187;SDS011;11762;59.878;17.686;2023-02-15T00:21:27;16.33;;;7.73;;
23187;SDS011;11762;59.878;17.686;2023-02-15T00:23:55;17.77;;;7.00;;
23187;SDS011;11762;59.878;17.686;2023-02-15T00:26:22;13.90;;;7.93;;
23187;SDS011;11762;59.878;17.686;2023-02-15T00:28:49;21.47;;;8.33;;
23187;SDS011;11762;59.878;17.686;2023-02-15T00:31:16;15.20;;;8.03;;
23187;SDS011;11762;59.878;17.686;2023-02-15T00:33:43;13.87;;;6.73;;
23187;SDS011;11762;59.878;17.686;2023-02-15T00:36:12;14.53;;;7.87;;
23187;SDS011;11762;59.878;17.686;2023-02-15T00:38:39;18.47;;;8.07;;
23187;SDS011;11762;59.878;17.686;2023-02-15T00:41:06;17.30;;;7.10;;
23187;SDS011;11762;59.878;17.686;2023-02-15T00:43:35;13.40;;;6.77;;
23187;SDS011;11762;59.878;17.686;2023-02-15T00:46:02;17.07;;;6.93;;
23187;SDS011;11762;59.878;17.686;2023-02-15T00:48:30;14.10;;;6.40;;
23187;SDS011;11762;59.878;17.686;2023-02-15T00:50:57;15.57;;;6.77;;
23187;SDS011;11762;59.878;17.686;2023-02-15T00:53:27;12.70;;;6.63;;
23187;SDS011;11762;59.878;17.686;2023-02-15T00:55:55;11.27;;;6.20;;
23187;SDS011;11762;59.878;17.686;2023-02-15T00:58:22;12.67;;;5.63;;
23187;SDS011;11762;59.878;17.686;2023-02-15T01:00:49;9.37;;;4.97;;
23187;SDS011;11762;59.878;17.686;2023-02-15T01:03:17;12.87;;;5.60;;
23187;SDS011;11762;59.878;17.686;2023-02-15T01:05:46;13.13;;;5.10;;
23187;SDS011;11762;59.878;17.686;2023-02-15T01:08:13;10.07;;;4.80;;
23187;SDS011;11762;59.878;17.686;2023-02-15T01:10:42;9.73;;;4.83;;
23187;SDS011;11762;59.878;17.686;2023-02-15T01:13:12;7.93;;;4.47;;
23187;SDS011;11762;59.878;17.686;2023-02-15T01:15:39;11.83;;;4.50;;
23187;SDS011;11762;59.878;17.686;2023-02-15T01:18:06;11.07;;;4.47;;
23187;SDS011;11762;59.878;17.686;2023-02-15T01:20:34;8.07;;;4.50;;
23187;SDS011;11762;59.878;17.686;2023-02-15T01:23:04;7.23;;;4.43;;
23187;SDS011;11762;59.878;17.686;2023-02-15T01:25:32;9.37;;;4.67;;
23187;SDS011;11762;59.878;17.686;2023-02-15T01:28:02;8.37;;;4.13;;
23187;SDS011;11762;59.878;17.686;2023-02-15T01:30:30;11.13;;;4.80;;
23187;SDS011;11762;59.878;17.686;2023-02-15T01:32:57;9.60;;;4.73;;
23187;SDS011;11762;59.878;17.686;2023-02-15T01:35:26;10.13;;;5.00;;
23187;SDS011;11762;59.878;17.686;2023-02-15T01:37:53;8.87;;;4.67;;
23187;SDS011;11762;59.878;17.686;2023-02-15T01:40:21;10.67;;;4.47;;
23187;SDS011;11762;59.878;17.686;2023-02-15T01:42:50;9.17;;;3.77;;
23187;SDS011;11762;59.878;17.686;2023-02-15T01:45:20;6.57;;;4.10;;
23187;SDS011;11762;59.878;17.686;2023-02-15T01:47:50;6.80;;;4.13;;
23187;SDS011;11762;59.878;17.686;2023-02-15T01:50:25;8.50;;;3.77;;
23187;SDS011;11762;59.878;17.686;2023-02-15T01:52:57;6.00;;;3.47;;
23187;SDS011;11762;59.878;17.686;2023-02-15T01:55:28;7.30;;;3.50;;
23187;SDS011;11762;59.878;17.686;2023-02-15T01:57:58;10.27;;;4.07;;
23187;SDS011;11762;59.878;17.686;2023-02-15T02:00:27;7.43;;;3.43;;
23187;SDS011;11762;59.878;17.686;2023-02-15T02:02:55;6.60;;;3.70;;
23187;SDS011;11762;59.878;17.686;2023-02-15T02:05:23;9.87;;;4.10;;
23187;SDS011;11762;59.878;17.686;2023-02-15T02:07:50;6.43;;;3.97;;
23187;SDS011;11762;59.878;17.686;2023-02-15T02:10:22;7.30;;;3.97;;
23187;SDS011;11762;59.878;17.686;2023-02-15T02:12:50;8.97;;;3.93;;
23187;SDS011;11762;59.878;17.686;2023-02-15T02:15:20;8.10;;;3.90;;
23187;SDS011;11762;59.878;17.686;2023-02-15T02:17:58;8.40;;;4.37;;
23187;SDS011;11762;59.878;17.686;2023-02-15T02:20:42;7.50;;;4.60;;
23187;SDS011;11762;59.878;17.686;2023-02-15T02:23:27;9.00;;;4.30;;
23187;SDS011;11762;59.878;17.686;2023-02-15T02:35:38;8.90;;;4.63;;
23187;SDS011;11762;59.878;17.686;2023-02-15T02:38:11;8.93;;;4.43;;
23187;SDS011;11762;59.878;17.686;2023-02-15T02:40:50;10.83;;;5.00;;
23187;SDS011;11762;59.878;17.686;2023-02-15T02:43:27;9.37;;;5.33;;
23187;SDS011;11762;59.878;17.686;2023-02-15T02:46:02;8.73;;;4.83;;
23187;SDS011;11762;59.878;17.686;2023-02-15T02:48:34;11.00;;;4.90;;
23187;SDS011;11762;59.878;17.686;2023-02-15T02:51:04;9.37;;;4.50;;
23187;SDS011;11762;59.878;17.686;2023-02-15T02:53:31;9.90;;;4.57;;
23187;SDS011;11762;59.878;17.686;2023-02-15T02:56:01;10.70;;;5.13;;
23187;SDS011;11762;59.878;17.686;2023-02-15T02:58:33;10.30;;;5.67;;
23187;SDS011;11762;59.878;17.686;2023-02-15T03:01:06;10.53;;;5.43;;
23187;SDS011;11762;59.878;17.686;2023-02-15T03:03:40;10.17;;;5.07;;
23187;SDS011;11762;59.878;17.686;2023-02-15T03:06:12;10.10;;;5.10;;
23187;SDS011;11762;59.878;17.686;2023-02-15T03:08:43;8.60;;;4.73;;
23187;SDS011;11762;59.878;17.686;2023-02-15T03:11:14;9.67;;;4.73;;
23187;SDS011;11762;59.878;17.686;2023-02-15T03:13:41;11.00;;;4.77;;
23187;SDS011;11762;59.878;17.686;2023-02-15T03:16:11;9.27;;;4.67;;
23187;SDS011;11762;59.878;17.686;2023-02-15T03:18:53;9.50;;;5.20;;
23187;SDS011;11762;59.878;17.686;2023-02-15T03:21:30;9.53;;;5.07;;
23187;SDS011;11762;59.878;17.686;2023-02-15T03:24:01;10.77;;;4.63;;
23187;SDS011;11762;59.878;17.686;2023-02-15T03:26:32;13.03;;;5.37;;
23187;SDS011;11762;59.878;17.686;2023-02-15T03:29:00;10.37;;;5.03;;
23187;SDS011;11762;59.878;17.686;2023-02-15T03:31:31;11.87;;;4.60;;
23187;SDS011;11762;59.878;17.686;2023-02-15T03:34:02;14.63;;;5.53;;
23187;SDS011;11762;59.878;17.686;2023-02-15T03:36:35;9.40;;;5.13;;
23187;SDS011;11762;59.878;17.686;2023-02-15T03:39:09;9.73;;;5.27;;
23187;SDS011;11762;59.878;17.686;2023-02-15T03:41:45;9.23;;;4.63;;
23187;SDS011;11762;59.878;17.686;2023-02-15T03:44:23;12.57;;;5.50;;
23187;SDS011;11762;59.878;17.686;2023-02-15T03:46:56;12.33;;;5.10;;
23187;SDS011;11762;59.878;17.686;2023-02-15T03:49:29;12.70;;;5.47;;
23187;SDS011;11762;59.878;17.686;2023-02-15T03:52:04;11.57;;;5.13;;
23187;SDS011;11762;59.878;17.686;2023-02-15T03:54:33;15.63;;;5.37;;
23187;SDS011;11762;59.878;17.686;2023-02-15T03:57:14;11.90;;;5.67;;
23187;SDS011;11762;59.878;17.686;2023-02-15T04:00:00;13.67;;;5.83;;
23187;SDS011;11762;59.878;17.686;2023-02-15T04:02:55;10.03;;;5.10;;
23187;SDS011;11762;59.878;17.686;2023-02-15T04:05:33;12.30;;;6.27;;
23187;SDS011;11762;59.878;17.686;2023-02-15T04:08:02;12.93;;;5.93;;
23187;SDS011;11762;59.878;17.686;2023-02-15T04:10:30;13.50;;;6.60;;
23187;SDS011;11762;59.878;17.686;2023-02-15T04:13:17;11.10;;;5.77;;
23187;SDS011;11762;59.878;17.686;2023-02-15T04:15:44;14.33;;;6.07;;
23187;SDS011;11762;59.878;17.686;2023-02-15T04:18:29;12.87;;;6.60;;
23187;SDS011;11762;59.878;17.686;2023-02-15T04:21:14;14.10;;;7.03;;
23187;SDS011;11762;59.878;17.686;2023-02-15T04:24:00;19.67;;;7.53;;
23187;SDS011;11762;59.878;17.686;2023-02-15T04:26:45;12.03;;;6.57;;
23187;SDS011;11762;59.878;17.686;2023-02-15T04:29:12;16.70;;;7.63;;
23187;SDS011;11762;59.878;17.686;2023-02-15T04:31:40;15.20;;;6.93;;
23187;SDS011;11762;59.878;17.686;2023-02-15T04:34:08;15.57;;;6.73;;
23187;SDS011;11762;59.878;17.686;2023-02-15T04:36:35;17.37;;;7.63;;
23187;SDS011;11762;59.878;17.686;2023-02-15T04:39:04;18.37;;;7.33;;
23187;SDS011;11762;59.878;17.686;2023-02-15T04:41:31;15.77;;;7.27;;
23187;SDS011;11762;59.878;17.686;2023-02-15T04:43:59;17.07;;;7.17;;
23187;SDS011;11762;59.878;17.686;2023-02-15T04:46:26;13.60;;;7.03;;
23187;SDS011;11762;59.878;17.686;2023-02-15T04:48:54;13.37;;;7.40;;
23187;SDS011;11762;59.878;17.686;2023-02-15T04:51:21;16.50;;;8.47;;
23187;SDS011;11762;59.878;17.686;2023-02-15T04:53:49;18.67;;;8.07;;
23187;SDS011;11762;59.878;17.686;2023-02-15T04:56:18;17.13;;;7.40;;
23187;SDS011;11762;59.878;17.686;2023-02-15T04:58:46;17.17;;;7.90;;
23187;SDS011;11762;59.878;17.686;2023-02-15T05:01:14;13.70;;;6.93;;
23187;SDS011;11762;59.878;17.686;2023-02-15T05:03:41;20.37;;;8.57;;
23187;SDS011;11762;59.878;17.686;2023-02-15T05:06:08;13.90;;;7.30;;
23187;SDS011;11762;59.878;17.686;2023-02-15T05:08:35;16.80;;;8.63;;
23187;SDS011;11762;59.878;17.686;2023-02-15T05:11:02;20.33;;;8.50;;
23187;SDS011;11762;59.878;17.686;2023-02-15T05:13:31;14.70;;;7.40;;
23187;SDS011;11762;59.878;17.686;2023-02-15T05:15:58;15.97;;;7.07;;
23187;SDS011;11762;59.878;17.686;2023-02-15T05:18:25;17.37;;;8.50;;
23187;SDS011;11762;59.878;17.686;2023-02-15T05:20:52;21.77;;;8.73;;
23187;SDS011;11762;59.878;17.686;2023-02-15T05:23:19;17.07;;;7.87;;
23187;SDS011;11762;59.878;17.686;2023-02-15T05:25:46;16.43;;;8.03;;
23187;SDS011;11762;59.878;17.686;2023-02-15T05:28:33;16.87;;;8.33;;
23187;SDS011;11762;59.878;17.686;2023-02-15T05:31:02;19.37;;;8.67;;
23187;SDS011;11762;59.878;17.686;2023-02-15T05:33:31;18.80;;;8.00;;
23187;SDS011;11762;59.878;17.686;2023-02-15T05:35:59;23.83;;;9.10;;
23187;SDS011;11762;59.878;17.686;2023-02-15T05:38:26;23.07;;;9.67;;
23187;SDS011;11762;59.878;17.686;2023-02-15T05:40:53;17.53;;;8.83;;
23187;SDS011;11762;59.878;17.686;2023-02-15T05:43:20;23.50;;;9.40;;
23187;SDS011;11762;59.878;17.686;2023-02-15T05:45:50;20.73;;;9.40;;
23187;SDS011;11762;59.878;17.686;2023-02-15T05:48:18;19.33;;;9.13;;
23187;SDS011;11762;59.878;17.686;2023-02-15T05:50:46;21.70;;;9.13;;
23187;SDS011;11762;59.878;17.686;2023-02-15T05:53:23;18.27;;;8.10;;
23187;SDS011;11762;59.878;17.686;2023-02-15T05:55:50;18.13;;;9.07;;
23187;SDS011;11762;59.878;17.686;2023-02-15T05:58:18;19.17;;;8.73;;
23187;SDS011;11762;59.878;17.686;2023-02-15T06:00:46;23.50;;;9.73;;
23187;SDS011;11762;59.878;17.686;2023-02-15T06:03:14;22.00;;;9.07;;
23187;SDS011;11762;59.878;17.686;2023-02-15T06:05:41;22.30;;;8.83;;
23187;SDS011;11762;59.878;17.686;2023-02-15T06:08:08;20.33;;;8.87;;
23187;SDS011;11762;59.878;17.686;2023-02-15T06:10:36;22.63;;;10.33;;
23187;SDS011;11762;59.878;17.686;2023-02-15T06:13:05;21.33;;;9.90;;
23187;SDS011;11762;59.878;17.686;2023-02-15T06:15:32;21.40;;;9.00;;
23187;SDS011;11762;59.878;17.686;2023-02-15T06:17:59;24.70;;;9.83;;
23187;SDS011;11762;59.878;17.686;2023-02-15T06:20:28;20.63;;;9.80;;
23187;SDS011;11762;59.878;17.686;2023-02-15T06:22:55;19.77;;;9.20;;
23187;SDS011;11762;59.878;17.686;2023-02-15T06:25:22;31.93;;;11.63;;
23187;SDS011;11762;59.878;17.686;2023-02-15T06:27:49;29.10;;;12.17;;
23187;SDS011;11762;59.878;17.686;2023-02-15T06:30:17;27.40;;;11.17;;
23187;SDS011;11762;59.878;17.686;2023-02-15T06:32:44;22.73;;;10.20;;
23187;SDS011;11762;59.878;17.686;2023-02-15T06:35:11;21.57;;;9.43;;
23187;SDS011;11762;59.878;17.686;2023-02-15T06:37:39;22.10;;;9.27;;
23187;SDS011;11762;59.878;17.686;2023-02-15T06:40:07;30.37;;;11.37;;
23187;SDS011;11762;59.878;17.686;2023-02-15T06:42:35;29.87;;;12.73;;
23187;SDS011;11762;59.878;17.686;2023-02-15T06:45:02;28.97;;;11.80;;
23187;SDS011;11762;59.878;17.686;2023-02-15T06:47:29;24.40;;;10.47;;
23187;SDS011;11762;59.878;17.686;2023-02-15T06:49:56;27.30;;;11.73;;
23187;SDS011;11762;59.878;17.686;2023-02-15T06:52:23;22.77;;;10.37;;
23187;SDS011;11762;59.878;17.686;2023-02-15T06:54:52;24.67;;;10.77;;
23187;SDS011;11762;59.878;17.686;2023-02-15T06:57:19;25.67;;;10.10;;
23187;SDS011;11762;59.878;17.686;2023-02-15T06:59:46;18.43;;;9.33;;
23187;SDS011;11762;59.878;17.686;2023-02-15T07:02:13;21.63;;;9.63;;
23187;SDS011;11762;59.878;17.686;2023-02-15T07:04:40;26.77;;;10.20;;
23187;SDS011;11762;59.878;17.686;2023-02-15T07:07:07;27.63;;;10.67;;
23187;SDS011;11762;59.878;17.686;2023-02-15T07:09:36;20.40;;;9.83;;
23187;SDS011;11762;59.878;17.686;2023-02-15T07:12:05;22.20;;;10.10;;
23187;SDS011;11762;59.878;17.686;2023-02-15T07:14:49;24.33;;;9.73;;
23187;SDS011;11762;59.878;17.686;2023-02-15T07:17:16;19.33;;;8.83;;
23187;SDS011;11762;59.878;17.686;2023-02-15T07:19:43;24.13;;;9.93;;
23187;SDS011;11762;59.878;17.686;2023-02-15T07:22:10;18.33;;;9.60;;
23187;SDS011;11762;59.878;17.686;2023-02-15T07:24:37;23.40;;;9.97;;
23187;SDS011;11762;59.878;17.686;2023-02-15T07:27:07;22.80;;;9.90;;
23187;SDS011;11762;59.878;17.686;2023-02-15T07:29:34;19.73;;;9.10;;
23187;SDS011;11762;59.878;17.686;2023-02-15T07:32:01;22.73;;;9.97;;
23187;SDS011;11762;59.878;17.686;2023-02-15T07:34:28;26.40;;;10.17;;
23187;SDS011;11762;59.878;17.686;2023-02-15T07:36:55;22.33;;;10.20;;
23187;SDS011;11762;59.878;17.686;2023-02-15T07:39:22;21.63;;;9.43;;
23187;SDS011;11762;59.878;17.686;2023-02-15T07:41:49;23.60;;;10.70;;
23187;SDS011;11762;59.878;17.686;2023-02-15T07:44:18;20.73;;;9.83;;
23187;SDS011;11762;59.878;17.686;2023-02-15T07:46:45;22.90;;;10.73;;
23187;SDS011;11762;59.878;17.686;2023-02-15T07:49:12;23.07;;;9.47;;
23187;SDS011;11762;59.878;17.686;2023-02-15T07:51:39;27.80;;;11.63;;
23187;SDS011;11762;59.878;17.686;2023-02-15T07:54:07;28.77;;;12.03;;
23187;SDS011;11762;59.878;17.686;2023-02-15T07:56:34;21.87;;;9.50;;
23187;SDS011;11762;59.878;17.686;2023-02-15T07:59:01;23.50;;;10.00;;
23187;SDS011;11762;59.878;17.686;2023-02-15T08:01:32;24.80;;;9.83;;
23187;SDS011;11762;59.878;17.686;2023-02-15T08:04:01;24.87;;;10.77;;
23187;SDS011;11762;59.878;17.686;2023-02-15T08:06:29;30.27;;;10.73;;
23187;SDS011;11762;59.878;17.686;2023-02-15T08:08:57;23.10;;;10.47;;
23187;SDS011;11762;59.878;17.686;2023-02-15T08:11:24;23.93;;;9.77;;
23187;SDS011;11762;59.878;17.686;2023-02-15T08:13:58;30.93;;;11.70;;
23187;SDS011;11762;59.878;17.686;2023-02-15T08:16:29;25.53;;;10.43;;
23187;SDS011;11762;59.878;17.686;2023-02-15T08:19:00;24.60;;;9.40;;
23187;SDS011;11762;59.878;17.686;2023-02-15T08:21:28;23.73;;;10.40;;
23187;SDS011;11762;59.878;17.686;2023-02-15T08:23:56;19.83;;;9.87;;
23187;SDS011;11762;59.878;17.686;2023-02-15T08:26:25;24.60;;;9.37;;
23187;SDS011;11762;59.878;17.686;2023-02-15T08:28:53;21.20;;;8.97;;
23187;SDS011;11762;59.878;17.686;2023-02-15T08:31:21;21.40;;;9.23;;
23187;SDS011;11762;59.878;17.686;2023-02-15T08:33:50;21.33;;;9.60;;
23187;SDS011;11762;59.878;17.686;2023-02-15T08:36:19;26.77;;;9.00;;
23187;SDS011;11762;59.878;17.686;2023-02-15T08:38:47;17.57;;;7.63;;
23187;SDS011;11762;59.878;17.686;2023-02-15T08:41:15;19.20;;;9.17;;
23187;SDS011;11762;59.878;17.686;2023-02-15T08:43:44;20.93;;;8.83;;
23187;SDS011;11762;59.878;17.686;2023-02-15T08:46:13;19.50;;;8.87;;
23187;SDS011;11762;59.878;17.686;2023-02-15T08:48:41;22.23;;;9.20;;
23187;SDS011;11762;59.878;17.686;2023-02-15T08:51:11;22.10;;;9.27;;
23187;SDS011;11762;59.878;17.686;2023-02-15T08:53:39;20.57;;;9.23;;
23187;SDS011;11762;59.878;17.686;2023-02-15T08:56:07;18.10;;;7.90;;
23187;SDS011;11762;59.878;17.686;2023-02-15T08:58:35;30.37;;;10.43;;
23187;SDS011;11762;59.878;17.686;2023-02-15T09:01:08;20.43;;;9.47;;
23187;SDS011;11762;59.878;17.686;2023-02-15T09:03:36;22.10;;;10.10;;
23187;SDS011;11762;59.878;17.686;2023-02-15T09:06:03;19.77;;;8.60;;
23187;SDS011;11762;59.878;17.686;2023-02-15T09:08:32;22.53;;;9.53;;
23187;SDS011;11762;59.878;17.686;2023-02-15T09:11:06;21.37;;;9.20;;
23187;SDS011;11762;59.878;17.686;2023-02-15T09:13:34;16.83;;;7.90;;
23187;SDS011;11762;59.878;17.686;2023-02-15T09:16:02;20.13;;;7.93;;
23187;SDS011;11762;59.878;17.686;2023-02-15T09:18:31;22.60;;;8.13;;
23187;SDS011;11762;59.878;17.686;2023-02-15T09:21:04;21.40;;;8.10;;
23187;SDS011;11762;59.878;17.686;2023-02-15T09:23:34;23.67;;;8.90;;
23187;SDS011;11762;59.878;17.686;2023-02-15T09:26:02;22.03;;;8.87;;
23187;SDS011;11762;59.878;17.686;2023-02-15T09:28:30;21.27;;;8.50;;
23187;SDS011;11762;59.878;17.686;2023-02-15T09:31:03;18.57;;;8.47;;
23187;SDS011;11762;59.878;17.686;2023-02-15T09:33:32;18.83;;;7.70;;
23187;SDS011;11762;59.878;17.686;2023-02-15T09:36:01;22.33;;;8.63;;
23187;SDS011;11762;59.878;17.686;2023-02-15T09:38:28;22.80;;;8.43;;
23187;SDS011;11762;59.878;17.686;2023-02-15T09:40:59;21.57;;;8.37;;
23187;SDS011;11762;59.878;17.686;2023-02-15T09:43:43;19.80;;;8.17;;
23187;SDS011;11762;59.878;17.686;2023-02-15T09:46:22;21.10;;;8.93;;
23187;SDS011;11762;59.878;17.686;2023-02-15T09:49:01;17.37;;;8.07;;
23187;SDS011;11762;59.878;17.686;2023-02-15T09:51:42;20.20;;;8.70;;
23187;SDS011;11762;59.878;17.686;2023-02-15T09:54:37;17.97;;;8.07;;
23187;SDS011;11762;59.878;17.686;2023-02-15T09:57:15;18.37;;;8.83;;
23187;SDS011;11762;59.878;17.686;2023-02-15T09:59:50;21.80;;;8.37;;
23187;SDS011;11762;59.878;17.686;2023-02-15T10:02:29;20.47;;;8.60;;
23187;SDS011;11762;59.878;17.686;2023-02-15T10:05:08;19.57;;;8.00;;
23187;SDS011;11762;59.878;17.686;2023-02-15T10:10:40;18.20;;;7.70;;
23187;SDS011;11762;59.878;17.686;2023-02-15T10:13:21;20.47;;;8.67;;
23187;SDS011;11762;59.878;17.686;2023-02-15T10:16:01;20.40;;;7.93;;
23187;SDS011;11762;59.878;17.686;2023-02-15T10:18:51;18.63;;;7.70;;
23187;SDS011;11762;59.878;17.686;2023-02-15T10:21:32;18.07;;;8.43;;
23187;SDS011;11762;59.878;17.686;2023-02-15T10:24:14;17.30;;;7.83;;
23187;SDS011;11762;59.878;17.686;2023-02-15T10:26:54;17.47;;;8.23;;
23187;SDS011;11762;59.878;17.686;2023-02-15T10:29:32;22.07;;;8.40;;
23187;SDS011;11762;59.878;17.686;2023-02-15T10:32:05;22.43;;;8.07;;
23187;SDS011;11762;59.878;17.686;2023-02-15T10:34:43;22.43;;;8.63;;
23187;SDS011;11762;59.878;17.686;2023-02-15T10:37:21;22.67;;;10.40;;
23187;SDS011;11762;59.878;17.686;2023-02-15T10:40:08;18.07;;;7.17;;
23187;SDS011;11762;59.878;17.686;2023-02-15T10:42:44;17.60;;;8.00;;
23187;SDS011;11762;59.878;17.686;2023-02-15T10:45:27;19.87;;;7.43;;
23187;SDS011;11762;59.878;17.686;2023-02-15T10:48:08;15.60;;;6.67;;
23187;SDS011;11762;59.878;17.686;2023-02-15T10:50:57;19.37;;;7.53;;
23187;SDS011;11762;59.878;17.686;2023-02-15T10:53:34;21.37;;;8.53;;
23187;SDS011;11762;59.878;17.686;2023-02-15T10:56:18;14.23;;;7.37;;
23187;SDS011;11762;59.878;17.686;2023-02-15T10:58:55;13.93;;;6.33;;
23187;SDS011;11762;59.878;17.686;2023-02-15T11:01:35;20.07;;;8.10;;
23187;SDS011;11762;59.878;17.686;2023-02-15T11:04:16;17.30;;;7.30;;
23187;SDS011;11762;59.878;17.686;2023-02-15T11:07:12;18.67;;;7.37;;
23187;SDS011;11762;59.878;17.686;2023-02-15T11:09:44;19.53;;;7.43;;
23187;SDS011;11762;59.878;17.686;2023-02-15T11:12:16;17.93;;;7.50;;
23187;SDS011;11762;59.878;17.686;2023-02-15T11:14:46;16.47;;;8.03;;
23187;SDS011;11762;59.878;17.686;2023-02-15T11:17:21;18.43;;;7.40;;
23187;SDS011;11762;59.878;17.686;2023-02-15T11:19:54;22.20;;;8.40;;
23187;SDS011;11762;59.878;17.686;2023-02-15T11:22:27;15.97;;;7.63;;
23187;SDS011;11762;59.878;17.686;2023-02-15T11:24:56;18.53;;;7.90;;
23187;SDS011;11762;59.878;17.686;2023-02-15T11:27:25;24.93;;;8.03;;
23187;SDS011;11762;59.878;17.686;2023-02-15T11:29:57;20.30;;;8.50;;
23187;SDS011;11762;59.878;17.686;2023-02-15T11:32:29;15.83;;;6.70;;
23187;SDS011;11762;59.878;17.686;2023-02-15T11:34:59;19.50;;;7.67;;
23187;SDS011;11762;59.878;17.686;2023-02-15T11:37:32;19.73;;;8.13;;
23187;SDS011;11762;59.878;17.686;2023-02-15T11:40:06;21.53;;;8.03;;
23187;SDS011;11762;59.878;17.686;2023-02-15T11:42:44;19.17;;;7.43;;
23187;SDS011;11762;59.878;17.686;2023-02-15T11:45:18;21.90;;;8.53;;
23187;SDS011;11762;59.878;17.686;2023-02-15T11:47:52;23.70;;;8.73;;
23187;SDS011;11762;59.878;17.686;2023-02-15T11:50:21;18.20;;;7.77;;
23187;SDS011;11762;59.878;17.686;2023-02-15T11:52:51;20.23;;;8.57;;
23187;SDS011;11762;59.878;17.686;2023-02-15T11:55:21;19.50;;;7.93;;
23187;SDS011;11762;59.878;17.686;2023-02-15T11:57:50;23.20;;;8.07;;
23187;SDS011;11762;59.878;17.686;2023-02-15T12:00:24;23.67;;;8.07;;
23187;SDS011;11762;59.878;17.686;2023-02-15T12:03:02;17.60;;;7.60;;
23187;SDS011;11762;59.878;17.686;2023-02-15T12:05:36;17.03;;;7.50;;
23187;SDS011;11762;59.878;17.686;2023-02-15T12:08:10;23.30;;;8.80;;
23187;SDS011;11762;59.878;17.686;2023-02-15T12:10:43;17.30;;;7.57;;
23187;SDS011;11762;59.878;17.686;2023-02-15T12:13:19;20.87;;;7.67;;
23187;SDS011;11762;59.878;17.686;2023-02-15T12:15:48;21.63;;;7.80;;
23187;SDS011;11762;59.878;17.686;2023-02-15T12:18:20;20.83;;;7.47;;
23187;SDS011;11762;59.878;17.686;2023-02-15T12:20:58;18.57;;;8.20;;
23187;SDS011;11762;59.878;17.686;2023-02-15T12:23:27;21.73;;;7.90;;
23187;SDS011;11762;59.878;17.686;2023-02-15T12:25:55;20.37;;;7.77;;
23187;SDS011;11762;59.878;17.686;2023-02-15T12:28:25;19.10;;;7.67;;
23187;SDS011;11762;59.878;17.686;2023-02-15T12:30:57;21.37;;;8.83;;
23187;SDS011;11762;59.878;17.686;2023-02-15T12:33:28;22.17;;;7.77;;
23187;SDS011;11762;59.878;17.686;2023-02-15T12:35:57;23.00;;;8.73;;
23187;SDS011;11762;59.878;17.686;2023-02-15T12:38:27;19.37;;;8.33;;
23187;SDS011;11762;59.878;17.686;2023-02-15T12:40:58;22.87;;;7.90;;
23187;SDS011;11762;59.878;17.686;2023-02-15T12:43:29;22.13;;;8.33;;
23187;SDS011;11762;59.878;17.686;2023-02-15T12:46:19;16.13;;;7.30;;
23187;SDS011;11762;59.878;17.686;2023-02-15T12:48:52;18.00;;;7.07;;
23187;SDS011;11762;59.878;17.686;2023-02-15T12:51:42;16.60;;;7.27;;
23187;SDS011;11762;59.878;17.686;2023-02-15T12:54:15;18.60;;;6.90;;
23187;SDS011;11762;59.878;17.686;2023-02-15T12:56:43;19.83;;;8.00;;
23187;SDS011;11762;59.878;17.686;2023-02-15T12:59:12;19.40;;;7.30;;
23187;SDS011;11762;59.878;17.686;2023-02-15T13:01:40;24.43;;;7.60;;
23187;SDS011;11762;59.878;17.686;2023-02-15T13:04:16;18.93;;;7.67;;
23187;SDS011;11762;59.878;17.686;2023-02-15T13:06:48;21.97;;;8.40;;
23187;SDS011;11762;59.878;17.686;2023-02-15T13:09:17;17.40;;;7.97;;
23187;SDS011;11762;59.878;17.686;2023-02-15T13:11:46;22.50;;;8.00;;
23187;SDS011;11762;59.878;17.686;2023-02-15T13:14:16;21.60;;;8.20;;
23187;SDS011;11762;59.878;17.686;2023-02-15T13:16:47;18.57;;;7.37;;
23187;SDS011;11762;59.878;17.686;2023-02-15T13:19:18;21.80;;;8.33;;
23187;SDS011;11762;59.878;17.686;2023-02-15T13:21:47;21.53;;;7.53;;
23187;SDS011;11762;59.878;17.686;2023-02-15T13:24:17;21.50;;;6.87;;
23187;SDS011;11762;59.878;17.686;2023-02-15T13:26:48;19.40;;;8.63;;
23187;SDS011;11762;59.878;17.686;2023-02-15T13:29:17;19.90;;;7.83;;
23187;SDS011;11762;59.878;17.686;2023-02-15T13:31:48;22.20;;;8.00;;
23187;SDS011;11762;59.878;17.686;2023-02-15T13:34:20;23.53;;;7.77;;
23187;SDS011;11762;59.878;17.686;2023-02-15T13:36:51;17.20;;;7.17;;
23187;SDS011;11762;59.878;17.686;2023-02-15T13:39:33;25.77;;;8.50;;
23187;SDS011;11762;59.878;17.686;2023-02-15T13:42:09;18.00;;;7.83;;
23187;SDS011;11762;59.878;17.686;2023-02-15T13:44:53;18.90;;;7.53;;
23187;SDS011;11762;59.878;17.686;2023-02-15T13:47:32;18.43;;;7.93;;
23187;SDS011;11762;59.878;17.686;2023-02-15T13:50:14;17.57;;;7.37;;
23187;SDS011;11762;59.878;17.686;2023-02-15T13:53:06;20.73;;;7.77;;
23187;SDS011;11762;59.878;17.686;2023-02-15T13:55:46;20.67;;;8.70;;
23187;SDS011;11762;59.878;17.686;2023-02-15T14:01:31;27.13;;;7.87;;
23187;SDS011;11762;59.878;17.686;2023-02-15T14:07:20;20.60;;;7.73;;
23187;SDS011;11762;59.878;17.686;2023-02-15T14:09:57;18.73;;;8.23;;
23187;SDS011;11762;59.878;17.686;2023-02-15T14:12:42;21.00;;;8.60;;
23187;SDS011;11762;59.878;17.686;2023-02-15T14:15:26;20.60;;;7.93;;
23187;SDS011;11762;59.878;17.686;2023-02-15T14:18:05;16.97;;;7.07;;
23187;SDS011;11762;59.878;17.686;2023-02-15T14:20:43;24.33;;;8.27;;
23187;SDS011;11762;59.878;17.686;2023-02-15T14:23:21;22.20;;;7.80;;
23187;SDS011;11762;59.878;17.686;2023-02-15T14:26:02;22.30;;;8.63;;
23187;SDS011;11762;59.878;17.686;2023-02-15T14:28:37;20.07;;;7.57;;
23187;SDS011;11762;59.878;17.686;2023-02-15T14:31:10;17.67;;;7.20;;
23187;SDS011;11762;59.878;17.686;2023-02-15T14:33:40;20.67;;;8.20;;
23187;SDS011;11762;59.878;17.686;2023-02-15T14:36:10;21.87;;;8.87;;
23187;SDS011;11762;59.878;17.686;2023-02-15T14:38:47;22.37;;;8.00;;
23187;SDS011;11762;59.878;17.686;2023-02-15T14:41:56;19.87;;;8.17;;
23187;SDS011;11762;59.878;17.686;2023-02-15T14:44:27;19.73;;;7.67;;
23187;SDS011;11762;59.878;17.686;2023-02-15T14:47:01;20.80;;;7.53;;
23187;SDS011;11762;59.878;17.686;2023-02-15T14:49:35;25.70;;;7.53;;
23187;SDS011;11762;59.878;17.686;2023-02-15T14:52:04;18.53;;;7.37;;
23187;SDS011;11762;59.878;17.686;2023-02-15T14:57:27;20.73;;;7.63;;
23187;SDS011;11762;59.878;17.686;2023-02-15T14:59:57;22.90;;;7.70;;
23187;SDS011;11762;59.878;17.686;2023-02-15T15:02:29;20.30;;;7.63;;
23187;SDS011;11762;59.878;17.686;2023-02-15T15:05:09;21.73;;;7.97;;
23187;SDS011;11762;59.878;17.686;2023-02-15T15:07:41;21.53;;;7.63;;
23187;SDS011;11762;59.878;17.686;2023-02-15T15:18:57;19.47;;;6.87;;